Datum - Zeit
Döttingen
TemperaturTaupunktFeuchteSolar Wind aus
Richtung
Windböenaus
Richtung
Luftdruck
(QFF)
RegenRegen
Stärke
31.03.2020 - 00.00Uhr0.8 °C-3.3 °C74 %0.0 W/m²2.5 km/hNordosten8.3 km/hNordosten1024.2 hPa0.0 mm0.0 mm/h
31.03.2020 - 00.05Uhr0.8 °C-3.4 °C73 %0.0 W/m²1.8 km/hNordosten5.8 km/hNordosten1024.1 hPa0.0 mm0.0 mm/h
31.03.2020 - 00.10Uhr0.8 °C-3.5 °C73 %0.0 W/m²1.8 km/hNordosten5.8 km/hNordosten1024.2 hPa0.0 mm0.0 mm/h
31.03.2020 - 00.15Uhr0.9 °C-3.5 °C72 %0.0 W/m²3.5 km/hNordosten16.2 km/hNordosten1024.1 hPa0.0 mm0.0 mm/h
31.03.2020 - 00.20Uhr1.0 °C-3.5 °C72 %0.0 W/m²2.5 km/hNordosten8.3 km/hNordosten1024.1 hPa0.0 mm0.0 mm/h
31.03.2020 - 00.25Uhr0.9 °C-3.6 °C72 %0.0 W/m²2.3 km/hNordosten8.3 km/hNordosten1024.2 hPa0.0 mm0.0 mm/h
31.03.2020 - 00.30Uhr0.8 °C-3.6 °C72 %0.0 W/m²4.7 km/hNordosten12.2 km/hNord-NO1024.1 hPa0.0 mm0.0 mm/h
31.03.2020 - 00.35Uhr1.0 °C-3.7 °C71 %0.0 W/m²5.4 km/hNord-NO12.2 km/hNord-NO1024.1 hPa0.0 mm0.0 mm/h
31.03.2020 - 00.40Uhr1.1 °C-3.6 °C71 %0.0 W/m²3.1 km/hNord-NO8.3 km/hNord-NO1024.1 hPa0.0 mm0.0 mm/h
31.03.2020 - 00.45Uhr1.0 °C-3.9 °C70 %0.0 W/m²2.2 km/hNord-NO5.8 km/hNord-NO1024.2 hPa0.0 mm0.0 mm/h
31.03.2020 - 00.50Uhr0.8 °C-4.0 °C70 %0.0 W/m²1.6 km/hNord-NO4.0 km/hNord-NO1024.2 hPa0.0 mm0.0 mm/h
31.03.2020 - 00.55Uhr0.5 °C-4.0 °C72 %0.0 W/m²1.7 km/hNord-NO5.8 km/hNord-NO1024.2 hPa0.0 mm0.0 mm/h
31.03.2020 - 01.00Uhr0.2 °C-3.6 °C76 %0.0 W/m²0.0 km/hNord-NO0.0 km/hNorden1024.3 hPa0.0 mm0.0 mm/h
31.03.2020 - 01.05Uhr0.0 °C-3.7 °C76 %0.0 W/m²2.2 km/hNord-NO5.8 km/hNordosten1024.2 hPa0.0 mm0.0 mm/h
31.03.2020 - 01.10Uhr0.2 °C-3.9 °C74 %0.0 W/m²0.6 km/hNordosten1.8 km/hNordosten1024.2 hPa0.0 mm0.0 mm/h
31.03.2020 - 01.15Uhr0.1 °C-3.9 °C74 %0.0 W/m²0.7 km/hNordosten1.8 km/hNordosten1024.2 hPa0.0 mm0.0 mm/h
31.03.2020 - 01.20Uhr0.4 °C-4.2 °C71 %0.0 W/m²2.8 km/hNordosten8.3 km/hNordosten1024.1 hPa0.0 mm0.0 mm/h
31.03.2020 - 01.25Uhr0.3 °C-4.4 °C70 %0.0 W/m²2.7 km/hNordosten8.3 km/hNordosten1024.1 hPa0.0 mm0.0 mm/h
31.03.2020 - 01.30Uhr0.6 °C-4.5 °C69 %0.0 W/m²2.8 km/hNordosten5.8 km/hNordosten1024.1 hPa0.0 mm0.0 mm/h
31.03.2020 - 01.35Uhr0.5 °C-4.7 °C68 %0.0 W/m²2.3 km/hNordosten5.8 km/hNordosten1024.1 hPa0.0 mm0.0 mm/h
31.03.2020 - 01.40Uhr0.5 °C-4.7 °C68 %0.0 W/m²1.7 km/hNordosten5.8 km/hNordosten1024.1 hPa0.0 mm0.0 mm/h
31.03.2020 - 01.45Uhr0.5 °C-4.7 °C68 %0.0 W/m²1.7 km/hNordosten4.0 km/hNordosten1024.1 hPa0.0 mm0.0 mm/h
31.03.2020 - 01.50Uhr-0.1 °C-3.9 °C76 %0.0 W/m²2.0 km/hNordosten5.8 km/hNordosten1024.2 hPa0.0 mm0.0 mm/h
31.03.2020 - 01.55Uhr-0.2 °C-4.2 °C74 %0.0 W/m²4.4 km/hNordosten8.3 km/hNordosten1024.2 hPa0.0 mm0.0 mm/h
31.03.2020 - 02.00Uhr-0.1 °C-4.5 °C72 %0.0 W/m²2.4 km/hNordosten5.8 km/hNordosten1024.1 hPa0.0 mm0.0 mm/h
31.03.2020 - 02.05Uhr0.0 °C-4.7 °C71 %0.0 W/m²2.0 km/hNordosten8.3 km/hNordosten1024.2 hPa0.0 mm0.0 mm/h
31.03.2020 - 02.10Uhr-0.1 °C-4.8 °C70 %0.0 W/m²1.9 km/hNordosten4.0 km/hNordosten1024.2 hPa0.0 mm0.0 mm/h
31.03.2020 - 02.15Uhr-0.2 °C-4.8 °C71 %0.0 W/m²0.9 km/hNordosten4.0 km/hNordosten1024.1 hPa0.0 mm0.0 mm/h
31.03.2020 - 02.20Uhr-0.2 °C-4.8 °C71 %0.0 W/m²0.7 km/hNordosten1.8 km/hNordosten1024.1 hPa0.0 mm0.0 mm/h
31.03.2020 - 02.25Uhr-0.1 °C-4.9 °C70 %0.0 W/m²1.9 km/hNordosten5.8 km/hNordosten1024.1 hPa0.0 mm0.0 mm/h
31.03.2020 - 02.30Uhr-0.3 °C-4.8 °C72 %0.0 W/m²0.0 km/hNordosten0.0 km/hNorden1024.1 hPa0.0 mm0.0 mm/h
31.03.2020 - 02.35Uhr-0.6 °C-4.8 °C73 %0.0 W/m²1.9 km/hNordosten5.8 km/hNordosten1024.1 hPa0.0 mm0.0 mm/h
31.03.2020 - 02.40Uhr-0.2 °C-5.0 °C70 %0.0 W/m²3.9 km/hNordosten10.1 km/hNordosten1024.1 hPa0.0 mm0.0 mm/h
31.03.2020 - 02.45Uhr0.0 °C-5.1 °C68 %0.0 W/m²4.4 km/hNordosten12.2 km/hNordosten1024.0 hPa0.0 mm0.0 mm/h
31.03.2020 - 02.50Uhr0.2 °C-5.3 °C66 %0.0 W/m²3.1 km/hNord-NO10.1 km/hNord-NO1024.0 hPa0.0 mm0.0 mm/h
31.03.2020 - 02.55Uhr0.1 °C-5.4 °C67 %0.0 W/m²2.6 km/hNordosten10.1 km/hNord-NO1024.0 hPa0.0 mm0.0 mm/h
31.03.2020 - 03.00Uhr0.1 °C-5.4 °C66 %0.0 W/m²4.0 km/hNordosten8.3 km/hNordosten1023.9 hPa0.0 mm0.0 mm/h
31.03.2020 - 03.05Uhr0.1 °C-5.5 °C66 %0.0 W/m²3.3 km/hNordosten12.2 km/hNordosten1023.9 hPa0.0 mm0.0 mm/h
31.03.2020 - 03.10Uhr0.1 °C-5.6 °C66 %0.0 W/m²2.9 km/hNord-NO8.3 km/hNord-NO1023.9 hPa0.0 mm0.0 mm/h
31.03.2020 - 03.15Uhr0.2 °C-5.7 °C64 %0.0 W/m²3.1 km/hNordosten10.1 km/hNordosten1023.9 hPa0.0 mm0.0 mm/h
31.03.2020 - 03.20Uhr0.2 °C-5.7 °C64 %0.0 W/m²5.6 km/hNordosten8.3 km/hNordosten1023.9 hPa0.0 mm0.0 mm/h
31.03.2020 - 03.25Uhr0.2 °C-5.7 °C64 %0.0 W/m²6.2 km/hNordosten14.0 km/hNordosten1023.8 hPa0.0 mm0.0 mm/h
31.03.2020 - 03.30Uhr0.4 °C-5.8 °C63 %0.0 W/m²6.2 km/hNordosten12.2 km/hNord-NO1023.8 hPa0.0 mm0.0 mm/h
31.03.2020 - 03.35Uhr0.4 °C-5.8 °C63 %0.0 W/m²4.9 km/hNordosten12.2 km/hNordosten1023.7 hPa0.0 mm0.0 mm/h
31.03.2020 - 03.40Uhr0.4 °C-6.0 °C62 %0.0 W/m²6.0 km/hNordosten12.2 km/hNord-NO1023.6 hPa0.0 mm0.0 mm/h
31.03.2020 - 03.45Uhr0.4 °C-6.0 °C62 %0.0 W/m²6.6 km/hNordosten12.2 km/hNord-NO1023.7 hPa0.0 mm0.0 mm/h
31.03.2020 - 03.50Uhr0.6 °C-6.2 °C61 %0.0 W/m²5.9 km/hNordosten16.2 km/hNord-NO1023.6 hPa0.0 mm0.0 mm/h
31.03.2020 - 03.55Uhr0.7 °C-6.3 °C60 %0.0 W/m²4.8 km/hNordosten12.2 km/hNorden1023.6 hPa0.0 mm0.0 mm/h
31.03.2020 - 04.00Uhr0.7 °C-6.3 °C59 %0.0 W/m²7.7 km/hNord-NO16.2 km/hNord-NO1023.5 hPa0.0 mm0.0 mm/h
31.03.2020 - 04.05Uhr0.6 °C-6.5 °C59 %0.0 W/m²6.3 km/hNordosten12.2 km/hNord-NO1023.6 hPa0.0 mm0.0 mm/h
31.03.2020 - 04.10Uhr0.6 °C-6.6 °C58 %0.0 W/m²4.3 km/hNordosten8.3 km/hNordosten1023.6 hPa0.0 mm0.0 mm/h
31.03.2020 - 04.15Uhr0.7 °C-6.7 °C58 %0.0 W/m²5.2 km/hNord-NO10.1 km/hNord-NO1023.6 hPa0.0 mm0.0 mm/h
31.03.2020 - 04.20Uhr0.6 °C-6.8 °C58 %0.0 W/m²5.9 km/hNordosten16.2 km/hNordosten1023.6 hPa0.0 mm0.0 mm/h
31.03.2020 - 04.25Uhr0.7 °C-6.8 °C57 %0.0 W/m²4.7 km/hNordosten14.0 km/hNord-NO1023.7 hPa0.0 mm0.0 mm/h
31.03.2020 - 04.30Uhr0.6 °C-6.7 °C58 %0.0 W/m²5.0 km/hNordosten10.1 km/hNord-NO1023.6 hPa0.0 mm0.0 mm/h
31.03.2020 - 04.35Uhr0.5 °C-6.7 °C58 %0.0 W/m²5.5 km/hNordosten16.2 km/hNordosten1023.6 hPa0.0 mm0.0 mm/h
31.03.2020 - 04.40Uhr0.6 °C-6.6 °C59 %0.0 W/m²3.9 km/hNordosten8.3 km/hNordosten1023.6 hPa0.0 mm0.0 mm/h
31.03.2020 - 04.45Uhr0.5 °C-6.6 °C59 %0.0 W/m²4.2 km/hNordosten12.2 km/hNordosten1023.6 hPa0.0 mm0.0 mm/h
31.03.2020 - 04.50Uhr0.4 °C-6.6 °C59 %0.0 W/m²3.3 km/hNordosten8.3 km/hNordosten1023.6 hPa0.0 mm0.0 mm/h
31.03.2020 - 04.55Uhr0.3 °C-6.7 °C60 %0.0 W/m²3.6 km/hNordosten10.1 km/hNordosten1023.6 hPa0.0 mm0.0 mm/h
31.03.2020 - 05.00Uhr0.3 °C-6.7 °C60 %0.0 W/m²2.8 km/hNord-NO8.3 km/hNord-NO1023.6 hPa0.0 mm0.0 mm/h
31.03.2020 - 05.05Uhr0.3 °C-6.7 °C60 %0.0 W/m²6.2 km/hNordosten16.2 km/hNord-NO1023.7 hPa0.0 mm0.0 mm/h
31.03.2020 - 05.10Uhr0.4 °C-6.7 °C59 %0.0 W/m²5.2 km/hNordosten12.2 km/hNordosten1023.6 hPa0.0 mm0.0 mm/h
31.03.2020 - 05.15Uhr0.4 °C-6.7 °C59 %0.0 W/m²3.8 km/hNordosten12.2 km/hNordosten1023.7 hPa0.0 mm0.0 mm/h
31.03.2020 - 05.20Uhr0.3 °C-6.8 °C59 %0.0 W/m²3.8 km/hNordosten10.1 km/hNordosten1023.7 hPa0.0 mm0.0 mm/h
31.03.2020 - 05.25Uhr0.4 °C-7.0 °C57 %0.0 W/m²3.4 km/hNord-NO10.1 km/hNord-NO1023.7 hPa0.0 mm0.0 mm/h
31.03.2020 - 05.30Uhr0.2 °C-6.6 °C60 %0.0 W/m²2.2 km/hNord-NO8.3 km/hOst-NO1023.7 hPa0.0 mm0.0 mm/h
31.03.2020 - 05.35Uhr-0.0 °C-6.4 °C62 %0.0 W/m²3.1 km/hOst-NO10.1 km/hOst-NO1023.8 hPa0.0 mm0.0 mm/h
31.03.2020 - 05.40Uhr0.1 °C-6.7 °C60 %0.0 W/m²1.8 km/hOst-NO5.8 km/hOst-NO1023.8 hPa0.0 mm0.0 mm/h
31.03.2020 - 05.45Uhr-0.2 °C-6.5 °C62 %0.0 W/m²3.2 km/hOst-NO5.8 km/hOst-NO1023.8 hPa0.0 mm0.0 mm/h
31.03.2020 - 05.50Uhr-0.5 °C-6.3 °C65 %0.0 W/m²4.7 km/hOsten8.3 km/hOsten1023.9 hPa0.0 mm0.0 mm/h
31.03.2020 - 05.55Uhr-0.9 °C-6.3 °C67 %0.0 W/m²4.0 km/hOsten8.3 km/hOsten1023.9 hPa0.0 mm0.0 mm/h
31.03.2020 - 06.00Uhr-1.5 °C-6.1 °C71 %0.0 W/m²5.6 km/hOsten8.3 km/hOsten1023.9 hPa0.0 mm0.0 mm/h
31.03.2020 - 06.05Uhr-1.8 °C-5.7 °C74 %0.0 W/m²5.8 km/hOsten12.2 km/hOsten1024.0 hPa0.0 mm0.0 mm/h
31.03.2020 - 06.10Uhr-2.1 °C-5.7 °C77 %0.0 W/m²5.9 km/hOsten8.3 km/hOsten1024.0 hPa0.0 mm0.0 mm/h
31.03.2020 - 06.15Uhr-2.2 °C-5.6 °C77 %0.0 W/m²6.8 km/hOsten8.3 km/hOsten1024.0 hPa0.0 mm0.0 mm/h
31.03.2020 - 06.20Uhr-2.0 °C-5.6 °C76 %0.0 W/m²8.5 km/hOsten10.1 km/hOsten1024.0 hPa0.0 mm0.0 mm/h
31.03.2020 - 06.25Uhr-1.6 °C-5.7 °C74 %0.0 W/m²2.7 km/hOsten8.3 km/hOsten1024.1 hPa0.0 mm0.0 mm/h
31.03.2020 - 06.30Uhr-1.0 °C-6.0 °C69 %0.0 W/m²3.2 km/hOsten8.3 km/hOsten1024.1 hPa0.0 mm0.0 mm/h
31.03.2020 - 06.35Uhr-0.9 °C-6.1 °C68 %0.0 W/m²3.5 km/hOsten8.3 km/hOsten1024.1 hPa0.0 mm0.0 mm/h
31.03.2020 - 06.40Uhr-1.0 °C-6.2 °C68 %0.0 W/m²5.9 km/hOsten8.3 km/hOsten1024.1 hPa0.0 mm0.0 mm/h
31.03.2020 - 06.45Uhr-1.1 °C-6.4 °C67 %0.0 W/m²5.0 km/hOsten8.3 km/hOsten1024.1 hPa0.0 mm0.0 mm/h
31.03.2020 - 06.50Uhr-1.2 °C-6.2 °C69 %0.0 W/m²2.9 km/hOsten8.3 km/hOsten1024.1 hPa0.0 mm0.0 mm/h
31.03.2020 - 06.55Uhr-1.3 °C-6.3 °C69 %0.0 W/m²2.8 km/hOsten8.3 km/hOsten1024.2 hPa0.0 mm0.0 mm/h
31.03.2020 - 07.00Uhr-1.4 °C-6.2 °C70 %0.0 W/m²3.4 km/hOsten8.3 km/hOsten1024.2 hPa0.0 mm0.0 mm/h
31.03.2020 - 07.05Uhr-1.5 °C-6.2 °C70 %5.0 W/m²2.2 km/hOsten8.3 km/hOsten1024.3 hPa0.0 mm0.0 mm/h
31.03.2020 - 07.10Uhr-1.5 °C-6.3 °C70 %7.0 W/m²2.5 km/hOsten4.0 km/hOsten1024.3 hPa0.0 mm0.0 mm/h
31.03.2020 - 07.15Uhr-1.3 °C-6.3 °C68 %9.0 W/m²2.1 km/hOsten8.3 km/hOsten1024.3 hPa0.0 mm0.0 mm/h
31.03.2020 - 07.20Uhr-1.3 °C-6.3 °C69 %12.0 W/m²1.5 km/hOsten4.0 km/hOsten1024.3 hPa0.0 mm0.0 mm/h
31.03.2020 - 07.25Uhr-1.7 °C-6.0 °C73 %14.0 W/m²0.6 km/hOsten1.8 km/hOsten1024.4 hPa0.0 mm0.0 mm/h
31.03.2020 - 07.30Uhr-2.1 °C-5.3 °C79 %16.0 W/m²0.0 km/hOsten0.0 km/hNorden1024.3 hPa0.0 mm0.0 mm/h
31.03.2020 - 07.35Uhr-2.1 °C-5.2 °C80 %18.0 W/m²1.2 km/hOsten4.0 km/hOsten1024.3 hPa0.0 mm0.0 mm/h
31.03.2020 - 07.40Uhr-2.2 °C-5.3 °C80 %19.0 W/m²3.1 km/hOsten8.3 km/hOsten1024.4 hPa0.0 mm0.0 mm/h
31.03.2020 - 07.45Uhr-2.4 °C-5.5 °C79 %21.0 W/m²1.5 km/hOsten4.0 km/hOsten1024.5 hPa0.0 mm0.0 mm/h
31.03.2020 - 07.50Uhr-2.4 °C-5.5 °C79 %23.0 W/m²0.3 km/hOsten1.8 km/hOsten1024.6 hPa0.0 mm0.0 mm/h
31.03.2020 - 07.55Uhr-2.3 °C-5.4 °C79 %63.0 W/m²0.0 km/hOsten0.0 km/hNorden1024.7 hPa0.0 mm0.0 mm/h
31.03.2020 - 08.00Uhr-2.0 °C-5.3 °C78 %86.0 W/m²3.2 km/hOsten8.3 km/hOsten1024.7 hPa0.0 mm0.0 mm/h
31.03.2020 - 08.05Uhr-1.6 °C-5.2 °C77 %91.0 W/m²0.9 km/hOsten4.0 km/hOsten1024.8 hPa0.0 mm0.0 mm/h
31.03.2020 - 08.10Uhr-1.2 °C-5.2 °C75 %107.0 W/m²0.0 km/hOsten0.0 km/hNorden1024.8 hPa0.0 mm0.0 mm/h
31.03.2020 - 08.15Uhr-1.2 °C-4.9 °C76 %118.0 W/m²0.0 km/hOsten0.0 km/hNorden1024.8 hPa0.0 mm0.0 mm/h
31.03.2020 - 08.20Uhr-0.8 °C-4.6 °C75 %130.0 W/m²0.0 km/hOsten0.0 km/hNorden1024.9 hPa0.0 mm0.0 mm/h
31.03.2020 - 08.25Uhr-0.4 °C-4.7 °C73 %146.0 W/m²0.0 km/hOsten0.0 km/hNorden1025.0 hPa0.0 mm0.0 mm/h
31.03.2020 - 08.30Uhr0.2 °C-4.7 °C69 %163.0 W/m²2.9 km/hOsten10.1 km/hOsten1025.0 hPa0.0 mm0.0 mm/h
31.03.2020 - 08.35Uhr0.9 °C-5.1 °C64 %179.0 W/m²1.2 km/hOsten4.0 km/hOsten1025.0 hPa0.0 mm0.0 mm/h
31.03.2020 - 08.40Uhr1.3 °C-5.2 °C62 %193.0 W/m²1.3 km/hOsten5.8 km/hOsten1025.1 hPa0.0 mm0.0 mm/h
31.03.2020 - 08.45Uhr1.7 °C-4.9 °C62 %204.0 W/m²1.8 km/hOsten5.8 km/hOsten1025.1 hPa0.0 mm0.0 mm/h
31.03.2020 - 08.50Uhr2.0 °C-4.8 °C61 %220.0 W/m²0.0 km/hOsten0.0 km/hNorden1025.1 hPa0.0 mm0.0 mm/h
31.03.2020 - 08.55Uhr2.1 °C-4.8 °C60 %236.0 W/m²0.8 km/hOsten4.0 km/hOsten1025.1 hPa0.0 mm0.0 mm/h
31.03.2020 - 09.00Uhr2.6 °C-4.6 °C59 %250.0 W/m²1.5 km/hOsten5.8 km/hOsten1025.2 hPa0.0 mm0.0 mm/h